Csk Radiance — VRXB4 — position and weather

sailwx.info

Track history (hours):
 
Tides and Currents Weather Stations Pressure Air Temp Water Temp Dewpoint Dewpoint Depression Visibility Wind Speed Wind Dir Waves Ship Positions

Csk Radiance

Last reported at 2014-Aug-15 17:17 UTC. Time now 2014-Sep-01 11:31 UTC.
Position S 34°21' E 025°37'.
Warning: this ship's position is 16 days out of date.

Length 289 m; draft 17.7 m.

Type: Cargo ship. MMSI: 477918000.

Date/timePositionNaut miles runAvg speedWind from/ knotsBaromVisibWave heightAir tempDewpointWater temp
2014-Aug-15 17:17S 34°21' E 025°37'3412.0
2014-Aug-15 14:29S 34°27' E 024°57'14311.8
2014-Aug-15 02:22S 34°38' E 022°04'6811.5
2014-Aug-14 20:29S 34°54' E 020°44'4611.3
2014-Aug-14 16:23S 35°05' E 019°49'1311.7
2014-Aug-14 15:16S 34°59' E 019°35'911.8
2014-Aug-14 14:29S 34°54' E 019°25'2211.6
2014-Aug-14 12:33S 34°44' E 019°01'1212.1
2014-Aug-14 11:33S 34°39' E 018°48'2311.7
2014-Aug-14 09:33S 34°29' E 018°22'1311.7
2014-Aug-14 08:27S 34°23' E 018°09'  
Track history (hours):
 
Tides and Currents Weather Stations Pressure Air Temp Water Temp Dewpoint Dewpoint Depression Visibility Wind Speed Wind Dir Waves Ship Positions

Csk Radiance

Last reported at 2014-Aug-15 17:17 UTC. Time now 2014-Sep-01 11:31 UTC.
Position S 34°21' E 025°37'.
Warning: this ship's position is 16 days out of date.

Length 289 m; draft 17.7 m.

Type: Cargo ship. MMSI: 477918000.

Date/timePositionNaut miles runAvg speedWind from/ knotsBaromVisibWave heightAir tempDewpointWater temp
2014-Aug-15 17:17S 34°21' E 025°37'3412.0
2014-Aug-15 14:29S 34°27' E 024°57'14311.8
2014-Aug-15 02:22S 34°38' E 022°04'6811.5
2014-Aug-14 20:29S 34°54' E 020°44'4611.3
2014-Aug-14 16:23S 35°05' E 019°49'1311.7
2014-Aug-14 15:16S 34°59' E 019°35'911.8
2014-Aug-14 14:29S 34°54' E 019°25'2211.6
2014-Aug-14 12:33S 34°44' E 019°01'1212.1
2014-Aug-14 11:33S 34°39' E 018°48'2311.7
2014-Aug-14 09:33S 34°29' E 018°22'1311.7
2014-Aug-14 08:27S 34°23' E 018°09'  

Dump ship's entire track history